Time;durP1;ratioP1;P1;durP2;ratioP2;P2;SDS_P1;SDS_P2;PMS_P1;PMS_P2;Temp;Humidity;BMP_temperature;BMP_pressure;BME280_temperature;BME280_humidity;BME280_pressure;Samples;Min_cycle;Max_cycle;Signal;HPM_P1;HPM_P2
2021/05/14 00:01:25;;;;;;;10.73;4.43;;;10.50;99.90;;;;;;5138792;27;20023;-76
2021/05/14 00:03:52;;;;;;;14.57;6.00;;;10.50;99.90;;;;;;5144207;27;20032;-78
2021/05/14 00:06:18;;;;;;;10.30;5.82;;;10.50;99.90;;;;;;5128159;27;20095;-77
2021/05/14 00:08:43;;;;;;;8.47;4.60;;;10.50;99.90;;;;;;5123545;27;20102;-77
2021/05/14 00:11:09;;;;;;;10.73;5.23;;;10.40;99.90;;;;;;5118548;27;20020;-77
2021/05/14 00:13:35;;;;;;;10.63;6.03;;;10.30;99.90;;;;;;5119659;27;20133;-78
2021/05/14 00:16:00;;;;;;;10.83;6.30;;;10.30;99.90;;;;;;5116162;27;20102;-78
2021/05/14 00:18:26;;;;;;;10.93;5.47;;;10.30;99.90;;;;;;5121597;27;20020;-77
2021/05/14 00:20:52;;;;;;;10.63;4.80;;;10.30;99.90;;;;;;5135587;27;20106;-77
2021/05/14 00:23:18;;;;;;;12.20;5.63;;;10.30;99.90;;;;;;5117764;27;20110;-77
2021/05/14 00:25:44;;;;;;;9.30;5.80;;;10.30;99.90;;;;;;5137170;27;20390;-78
2021/05/14 00:28:10;;;;;;;9.93;5.87;;;10.40;99.90;;;;;;5133135;27;20735;-77
2021/05/14 00:30:36;;;;;;;9.70;4.73;;;10.40;99.90;;;;;;5134902;27;20020;-76
2021/05/14 00:33:01;;;;;;;11.40;5.70;;;10.30;99.90;;;;;;5127786;27;20027;-76
2021/05/14 00:35:27;;;;;;;10.27;5.23;;;10.30;99.90;;;;;;5127863;27;20031;-77
2021/05/14 00:37:53;;;;;;;10.10;5.83;;;10.30;99.90;;;;;;5133981;27;20020;-78
2021/05/14 00:40:18;;;;;;;12.38;6.05;;;10.30;99.90;;;;;;5132996;27;20059;-77
2021/05/14 00:42:44;;;;;;;13.38;5.25;;;10.20;99.90;;;;;;5119558;27;20055;-78
2021/05/14 00:45:11;;;;;;;6.97;4.20;;;10.10;99.90;;;;;;5120387;27;20402;-78
2021/05/14 00:47:37;;;;;;;14.05;6.00;;;10.10;99.90;;;;;;5132872;27;20473;-78
2021/05/14 00:50:04;;;;;;;12.00;5.57;;;10.20;99.90;;;;;;5133655;27;20102;-78
2021/05/14 00:52:30;;;;;;;13.85;6.25;;;10.10;99.90;;;;;;5133762;27;20078;-78
2021/05/14 00:54:56;;;;;;;8.67;5.43;;;10.20;99.90;;;;;;5119577;27;20391;-78
2021/05/14 00:57:22;;;;;;;8.93;5.57;;;10.10;99.90;;;;;;5122893;27;20031;-78
2021/05/14 00:59:49;;;;;;;14.20;6.32;;;10.20;99.90;;;;;;5123198;27;20028;-78
2021/05/14 01:02:16;;;;;;;12.35;6.00;;;10.20;99.90;;;;;;5120893;27;20043;-78
2021/05/14 01:04:43;;;;;;;9.55;5.38;;;10.30;99.90;;;;;;5121643;27;20098;-78
2021/05/14 01:07:10;;;;;;;10.45;5.35;;;10.30;99.90;;;;;;5122871;27;20414;-78
2021/05/14 01:09:38;;;;;;;8.90;5.18;;;10.30;99.90;;;;;;5128468;27;20050;-78
2021/05/14 01:12:04;;;;;;;14.05;5.65;;;10.30;99.90;;;;;;5123633;27;20046;-78
2021/05/14 01:14:29;;;;;;;8.27;5.28;;;10.30;99.90;;;;;;5118336;27;20324;-78
2021/05/14 01:16:55;;;;;;;14.73;5.57;;;10.40;99.90;;;;;;5125873;27;20035;-78
2021/05/14 01:19:21;;;;;;;10.23;5.63;;;10.30;99.90;;;;;;5119722;27;20024;-78
2021/05/14 01:21:47;;;;;;;14.20;6.03;;;10.30;99.90;;;;;;5114400;27;20030;-79
2021/05/14 01:24:13;;;;;;;7.75;5.18;;;10.30;99.90;;;;;;5125197;27;20031;-79
2021/05/14 01:26:39;;;;;;;13.43;6.40;;;10.30;99.90;;;;;;5117264;27;20306;-79
2021/05/14 01:29:07;;;;;;;10.77;4.43;;;10.30;99.90;;;;;;5116115;27;20032;-79
2021/05/14 01:31:33;;;;;;;12.77;5.65;;;10.30;99.90;;;;;;5128531;27;20117;-78
2021/05/14 01:33:59;;;;;;;8.52;5.20;;;10.30;99.90;;;;;;5131519;27;20325;-79
2021/05/14 01:36:26;;;;;;;9.05;5.30;;;10.30;99.90;;;;;;5113690;27;20043;-79
2021/05/14 01:38:51;;;;;;;9.75;5.72;;;10.30;99.90;;;;;;5133664;27;20026;-79
2021/05/14 01:41:17;;;;;;;13.13;6.90;;;10.20;99.90;;;;;;5132266;27;20023;-79
2021/05/14 01:43:43;;;;;;;13.93;5.47;;;10.20;99.90;;;;;;5120795;27;20020;-79
2021/05/14 01:46:09;;;;;;;7.03;4.70;;;10.30;99.90;;;;;;5132427;27;20030;-78
2021/05/14 01:48:35;;;;;;;13.90;5.93;;;10.30;99.90;;;;;;5114997;27;20016;-78
2021/05/14 01:51:08;;;;;;;9.95;5.22;;;10.30;99.90;;;;;;5115556;27;20054;-78
2021/05/14 01:53:33;;;;;;;9.40;5.43;;;10.20;99.90;;;;;;5120025;27;20104;-79
2021/05/14 01:55:59;;;;;;;9.60;4.83;;;10.20;99.90;;;;;;5134087;27;20398;-78
2021/05/14 01:58:25;;;;;;;8.75;5.35;;;10.10;99.90;;;;;;5119769;27;20020;-78
2021/05/14 02:00:50;;;;;;;7.40;5.00;;;10.20;99.90;;;;;;5116423;27;20027;-78
2021/05/14 02:03:16;;;;;;;7.97;5.13;;;10.20;99.90;;;;;;5117420;27;20092;-78
2021/05/14 02:05:42;;;;;;;6.53;4.40;;;10.20;99.90;;;;;;5129307;27;20031;-78
2021/05/14 02:08:07;;;;;;;11.83;5.27;;;10.20;99.90;;;;;;5118373;27;20031;-79
2021/05/14 02:10:33;;;;;;;9.17;4.47;;;10.10;99.90;;;;;;5129766;27;20465;-77
2021/05/14 02:12:59;;;;;;;6.53;4.63;;;10.10;99.90;;;;;;5130934;27;20405;-78
2021/05/14 02:15:24;;;;;;;8.20;4.53;;;10.10;99.90;;;;;;5118532;27;20024;-79
2021/05/14 02:17:50;;;;;;;11.63;4.90;;;10.10;99.90;;;;;;5124993;27;20378;-79
2021/05/14 02:20:16;;;;;;;9.33;4.63;;;10.10;99.90;;;;;;5119273;27;20027;-78
2021/05/14 02:22:42;;;;;;;11.07;5.18;;;10.10;99.90;;;;;;5132220;27;20035;-79
2021/05/14 02:25:08;;;;;;;10.87;5.20;;;10.10;99.90;;;;;;5116941;27;20023;-78
2021/05/14 02:27:35;;;;;;;11.00;5.15;;;10.20;99.90;;;;;;5132844;27;20076;-78
2021/05/14 02:30:02;;;;;;;;;;;10.20;99.90;;;;;;5129718;27;20031;-78
2021/05/14 02:32:27;;;;;;;9.32;5.28;;;10.20;99.90;;;;;;5116291;27;20010;-79
2021/05/14 02:34:53;;;;;;;9.00;5.13;;;10.20;99.90;;;;;;5115390;27;20118;-78
2021/05/14 02:37:19;;;;;;;7.80;4.57;;;10.10;99.90;;;;;;5127584;27;20034;-79
2021/05/14 02:39:44;;;;;;;7.47;4.70;;;10.00;99.90;;;;;;5134084;27;20433;-80
2021/05/14 02:42:10;;;;;;;11.10;5.73;;;10.00;99.90;;;;;;5138331;27;20075;-78
2021/05/14 02:44:36;;;;;;;6.77;4.43;;;10.00;99.90;;;;;;5143151;27;20401;-79
2021/05/14 02:47:02;;;;;;;14.50;5.32;;;10.10;99.90;;;;;;5138231;27;20476;-78
2021/05/14 02:49:28;;;;;;;7.47;4.85;;;10.20;99.90;;;;;;5134178;27;20031;-78
2021/05/14 02:51:54;;;;;;;10.25;5.07;;;10.20;99.90;;;;;;5137065;27;20026;-78
2021/05/14 02:54:20;;;;;;;9.23;5.00;;;10.20;99.90;;;;;;5133633;27;20037;-79
2021/05/14 02:56:45;;;;;;;9.03;4.73;;;10.20;99.90;;;;;;5135782;27;20102;-79
2021/05/14 02:59:11;;;;;;;9.20;4.97;;;10.30;99.90;;;;;;5134050;27;20310;-78
2021/05/14 03:01:37;;;;;;;12.03;6.67;;;10.20;99.90;;;;;;5137613;27;20031;-79
2021/05/14 03:04:04;;;;;;;8.60;5.82;;;10.20;99.90;;;;;;5144129;27;20057;-79
2021/05/14 03:06:30;;;;;;;9.80;5.65;;;10.20;99.90;;;;;;5130860;27;20041;-78
2021/05/14 03:08:56;;;;;;;9.60;5.50;;;10.20;99.90;;;;;;5130268;27;20019;-78
2021/05/14 03:11:21;;;;;;;9.70;5.43;;;10.10;99.90;;;;;;5120736;27;20023;-79
2021/05/14 03:13:47;;;;;;;9.80;5.13;;;10.10;99.90;;;;;;5121551;27;20172;-78
2021/05/14 03:16:13;;;;;;;10.37;5.70;;;10.10;99.90;;;;;;5120494;27;20114;-78
2021/05/14 03:18:38;;;;;;;11.43;5.77;;;10.00;99.90;;;;;;5129115;27;20418;-78
2021/05/14 03:21:04;;;;;;;11.00;5.67;;;10.00;99.90;;;;;;5115512;27;20019;-78
2021/05/14 03:23:30;;;;;;;9.43;4.88;;;10.10;99.90;;;;;;5117629;27;20039;-79
2021/05/14 03:25:55;;;;;;;10.47;5.27;;;10.20;99.90;;;;;;5126043;27;20035;-78
2021/05/14 03:28:21;;;;;;;14.77;5.90;;;10.20;99.90;;;;;;5119148;27;20036;-78
2021/05/14 03:30:50;;;;;;;11.10;5.45;;;10.20;99.90;;;;;;5120004;27;20076;-78
2021/05/14 03:33:20;;;;;;;7.75;4.85;;;10.20;99.90;;;;;;5117505;27;20031;-78
2021/05/14 03:35:49;;;;;;;15.95;6.53;;;10.10;99.90;;;;;;5125455;27;20039;-79
2021/05/14 03:38:16;;;;;;;12.75;6.07;;;10.10;99.90;;;;;;5119600;27;20034;-78
2021/05/14 03:40:43;;;;;;;14.07;5.90;;;10.00;99.90;;;;;;5129821;27;20076;-78
2021/05/14 03:43:09;;;;;;;9.70;5.45;;;10.00;99.90;;;;;;5135368;27;20046;-78
2021/05/14 03:45:34;;;;;;;11.63;5.23;;;10.00;99.90;;;;;;5136114;27;20156;-79
2021/05/14 03:48:01;;;;;;;12.27;6.37;;;10.00;99.90;;;;;;5140108;27;20031;-79
2021/05/14 03:50:31;;;;;;;11.10;6.50;;;9.90;99.90;;;;;;5144159;27;20050;-78
2021/05/14 03:52:58;;;;;;;10.57;5.55;;;9.90;99.90;;;;;;5139764;27;20417;-79
2021/05/14 03:55:24;;;;;;;10.15;6.10;;;9.80;99.90;;;;;;5135290;27;20031;-78
2021/05/14 03:57:49;;;;;;;12.47;5.77;;;9.80;99.90;;;;;;5142761;27;20023;-79
2021/05/14 04:00:16;;;;;;;12.53;6.53;;;9.80;99.90;;;;;;5141339;27;20303;-79
2021/05/14 04:02:41;;;;;;;10.15;6.47;;;9.90;99.90;;;;;;5133053;27;20028;-79
2021/05/14 04:05:08;;;;;;;14.77;7.17;;;9.90;99.90;;;;;;5131449;27;20037;-79
2021/05/14 04:07:33;;;;;;;12.38;6.80;;;9.90;99.90;;;;;;5134636;27;20023;-79
2021/05/14 04:10:07;;;;;;;11.27;5.13;;;10.00;99.90;;;;;;5135924;27;20319;-79
2021/05/14 04:15:10;;;;;;;11.27;6.15;;;10.00;99.90;;;;;;5141403;27;20079;-79
2021/05/14 04:17:36;;;;;;;11.23;5.68;;;9.90;99.90;;;;;;5142068;27;20019;-79
2021/05/14 04:20:03;;;;;;;11.07;5.65;;;9.90;99.90;;;;;;5142899;27;20039;-80
2021/05/14 04:22:29;;;;;;;9.00;5.18;;;9.90;99.90;;;;;;5141499;27;20079;-79
2021/05/14 04:24:55;;;;;;;13.23;5.28;;;9.80;99.90;;;;;;5144811;27;20153;-79
2021/05/14 04:27:21;;;;;;;11.10;5.70;;;9.80;99.90;;;;;;5131133;27;20406;-80
2021/05/14 04:29:47;;;;;;;10.18;5.78;;;9.80;99.90;;;;;;5136938;27;20019;-79
2021/05/14 04:32:13;;;;;;;11.57;5.57;;;9.80;99.90;;;;;;5143215;27;20027;-80
2021/05/14 04:34:39;;;;;;;11.57;5.97;;;9.90;99.90;;;;;;5144103;27;20037;-81
2021/05/14 04:37:06;;;;;;;9.65;5.38;;;9.90;99.90;;;;;;5143049;27;20061;-80
2021/05/14 04:39:31;;;;;;;9.25;5.38;;;10.00;99.90;;;;;;5130006;27;20020;-80
2021/05/14 04:41:58;;;;;;;9.55;5.57;;;10.00;99.90;;;;;;5118040;27;20031;-80
2021/05/14 04:44:23;;;;;;;10.48;5.03;;;10.00;99.90;;;;;;5121387;27;20027;-80
2021/05/14 04:46:49;;;;;;;14.30;6.17;;;10.10;99.90;;;;;;5129158;27;20180;-80
2021/05/14 04:49:15;;;;;;;9.93;5.60;;;10.10;99.90;;;;;;5126688;27;20031;-80
2021/05/14 04:51:41;;;;;;;7.13;5.10;;;10.10;99.90;;;;;;5120364;27;20383;-80
2021/05/14 04:54:06;;;;;;;13.50;5.27;;;10.10;99.90;;;;;;5121977;27;20095;-80
2021/05/14 04:56:32;;;;;;;7.67;3.97;;;10.00;99.90;;;;;;5123548;27;20079;-79
2021/05/14 04:58:58;;;;;;;8.37;5.07;;;10.10;99.90;;;;;;5131962;27;20018;-80
2021/05/14 05:01:24;;;;;;;10.40;5.20;;;10.10;99.90;;;;;;5125994;27;20427;-81
2021/05/14 05:03:59;;;;;;;11.23;5.03;;;10.10;99.90;;;;;;5115764;27;20016;-80
2021/05/14 05:06:24;;;;;;;10.43;4.70;;;10.00;99.90;;;;;;5117729;27;20108;-80
2021/05/14 05:08:51;;;;;;;9.87;4.90;;;10.10;99.90;;;;;;5129732;27;20053;-79
2021/05/14 05:11:17;;;;;;;;;;;10.10;99.90;;;;;;5131831;27;20019;-79
2021/05/14 05:13:43;;;;;;;8.17;4.23;;;10.10;99.90;;;;;;5121722;27;19917;-80
2021/05/14 05:16:09;;;;;;;12.60;5.50;;;10.00;99.90;;;;;;5129610;27;20096;-80
2021/05/14 05:18:35;;;;;;;13.57;4.47;;;10.00;99.90;;;;;;5125568;27;20031;-80
2021/05/14 05:21:00;;;;;;;10.33;4.73;;;10.00;99.90;;;;;;5120758;27;20031;-80
2021/05/14 05:23:26;;;;;;;7.87;4.43;;;10.00;99.90;;;;;;5123393;27;20027;-79
2021/05/14 05:25:52;;;;;;;7.63;4.07;;;10.10;99.90;;;;;;5130024;27;20421;-80
2021/05/14 05:28:30;;;;;;;6.70;4.63;;;10.00;99.90;;;;;;5127664;27;20319;-81
2021/05/14 05:30:56;;;;;;;8.32;4.07;;;10.00;99.90;;;;;;5133741;27;20035;-79
2021/05/14 05:33:22;;;;;;;5.07;3.47;;;10.10;99.90;;;;;;5140993;27;20027;-79
2021/05/14 05:35:48;;;;;;;8.27;4.67;;;10.00;99.90;;;;;;5140916;27;20111;-79
2021/05/14 05:38:22;;;;;;;6.70;4.33;;;10.00;99.90;;;;;;5134031;27;20019;-79
2021/05/14 05:40:50;;;;;;;8.38;4.32;;;10.00;99.90;;;;;;5137495;27;20027;-79
2021/05/14 05:43:16;;;;;;;8.57;4.13;;;10.00;99.90;;;;;;5141658;27;20022;-79
2021/05/14 05:45:42;;;;;;;5.20;3.00;;;9.90;99.90;;;;;;5132157;27;20031;-79
2021/05/14 05:48:08;;;;;;;6.93;4.53;;;9.90;99.90;;;;;;5142256;27;20057;-79
2021/05/14 05:50:35;;;;;;;7.65;4.30;;;9.90;99.90;;;;;;5143776;27;20049;-79
2021/05/14 05:53:01;;;;;;;;;;;9.90;99.90;;;;;;5135261;27;20051;-80
2021/05/14 05:55:26;;;;;;;6.50;3.93;;;10.00;99.90;;;;;;5126020;27;19970;-81
2021/05/14 05:57:52;;;;;;;6.83;3.87;;;10.00;99.90;;;;;;5129507;27;20031;-79
2021/05/14 06:00:18;;;;;;;6.20;4.00;;;10.00;99.90;;;;;;5116186;27;20307;-80
2021/05/14 06:02:44;;;;;;;6.77;3.57;;;10.00;99.90;;;;;;5119928;27;20101;-78
2021/05/14 06:05:10;;;;;;;10.90;4.10;;;9.90;99.90;;;;;;5122526;27;20093;-79
2021/05/14 06:07:35;;;;;;;5.27;3.10;;;9.90;99.90;;;;;;5131621;27;20027;-81
2021/05/14 06:10:03;;;;;;;3.30;3.00;;;9.90;99.90;;;;;;5139536;27;20108;-80
2021/05/14 06:12:28;;;;;;;5.20;3.30;;;9.90;99.90;;;;;;5133944;27;20072;-80
2021/05/14 06:14:54;;;;;;;3.57;2.80;;;9.90;99.90;;;;;;5133842;27;20019;-79
2021/05/14 06:17:20;;;;;;;4.73;2.80;;;9.90;99.90;;;;;;5132472;27;20023;-79
2021/05/14 06:19:52;;;;;;;7.00;4.33;;;9.80;99.90;;;;;;5133216;27;20031;-80
2021/05/14 06:22:18;;;;;;;5.32;3.30;;;9.80;99.90;;;;;;5132405;27;20115;-80
2021/05/14 06:24:44;;;;;;;4.47;3.03;;;9.70;99.90;;;;;;5140127;27;20094;-79
2021/05/14 06:27:09;;;;;;;4.72;3.00;;;9.70;99.90;;;;;;5139208;27;20744;-80
2021/05/14 06:29:35;;;;;;;3.33;2.70;;;9.70;99.90;;;;;;5130245;27;20031;-78
2021/05/14 06:32:01;;;;;;;4.45;2.67;;;9.70;99.90;;;;;;5134417;27;20058;-80
2021/05/14 06:34:27;;;;;;;12.27;4.00;;;9.70;99.90;;;;;;5134652;27;20019;-78
2021/05/14 06:36:54;;;;;;;6.03;3.40;;;9.70;99.90;;;;;;5142947;27;20080;-80
2021/05/14 06:39:20;;;;;;;7.05;3.25;;;9.70;99.90;;;;;;5130825;27;20031;-79
2021/05/14 06:41:45;;;;;;;5.60;3.20;;;9.80;99.90;;;;;;5140706;27;20027;-79
2021/05/14 06:44:11;;;;;;;3.87;2.60;;;9.80;99.90;;;;;;5130115;27;20045;-78
2021/05/14 06:46:39;;;;;;;4.00;2.63;;;9.80;99.90;;;;;;5132125;27;20034;-79
2021/05/14 06:49:06;;;;;;;3.80;2.45;;;9.80;99.90;;;;;;5134568;27;20029;-79
2021/05/14 06:51:33;;;;;;;6.40;2.72;;;9.90;99.90;;;;;;5131693;27;20031;-78
2021/05/14 06:53:58;;;;;;;10.70;3.30;;;9.90;99.90;;;;;;5133075;27;20110;-79
2021/05/14 06:56:24;;;;;;;5.40;2.33;;;9.80;99.90;;;;;;5133409;27;20114;-79
2021/05/14 06:58:50;;;;;;;4.83;2.27;;;9.80;99.90;;;;;;5144653;27;20422;-79
2021/05/14 07:01:16;;;;;;;3.80;2.30;;;9.80;99.90;;;;;;5134682;27;20418;-78
2021/05/14 07:03:41;;;;;;;3.50;1.90;;;9.80;99.90;;;;;;5133800;27;20022;-78
2021/05/14 07:06:07;;;;;;;6.00;3.00;;;9.80;99.90;;;;;;5131431;27;20027;-79
2021/05/14 07:08:32;;;;;;;4.67;2.50;;;9.80;99.90;;;;;;5134837;27;20057;-79
2021/05/14 07:10:58;;;;;;;4.67;2.13;;;9.80;99.90;;;;;;5129854;27;20046;-80
2021/05/14 07:13:24;;;;;;;4.20;2.60;;;9.80;99.90;;;;;;5134382;27;20035;-80
2021/05/14 07:15:49;;;;;;;6.93;2.80;;;9.80;99.90;;;;;;5136319;27;20023;-80
2021/05/14 07:18:15;;;;;;;6.50;2.50;;;9.80;99.90;;;;;;5135548;27;20025;-79
2021/05/14 07:20:41;;;;;;;4.22;2.70;;;9.90;99.90;;;;;;5144230;27;20023;-80
2021/05/14 07:23:06;;;;;;;5.00;2.77;;;9.90;99.90;;;;;;5144689;27;20106;-78
2021/05/14 07:25:32;;;;;;;3.20;2.30;;;9.90;99.90;;;;;;5137987;27;20038;-79
2021/05/14 07:27:58;;;;;;;4.97;3.30;;;9.90;99.90;;;;;;5135805;27;20023;-80
2021/05/14 07:30:23;;;;;;;3.50;2.33;;;10.00;99.90;;;;;;5136810;27;20110;-79
2021/05/14 07:32:49;;;;;;;3.50;2.33;;;10.00;99.90;;;;;;5146589;27;20069;-79
2021/05/14 07:35:15;;;;;;;5.17;2.90;;;10.00;99.90;;;;;;5134921;27;20047;-79
2021/05/14 07:37:42;;;;;;;8.67;2.60;;;10.10;99.90;;;;;;5142894;27;20035;-79
2021/05/14 07:40:08;;;;;;;4.65;3.05;;;10.10;99.90;;;;;;5141249;27;20019;-79
2021/05/14 07:42:34;;;;;;;5.03;2.92;;;10.20;99.90;;;;;;5134176;27;20027;-80
2021/05/14 07:45:01;;;;;;;2.60;2.03;;;10.30;99.90;;;;;;5138215;27;20027;-79
2021/05/14 07:47:27;;;;;;;5.57;2.28;;;10.30;99.90;;;;;;5145998;27;20094;-80
2021/05/14 07:49:53;;;;;;;9.23;3.47;;;10.30;99.90;;;;;;5122048;27;20138;-79
2021/05/14 07:52:18;;;;;;;4.90;2.67;;;10.30;99.90;;;;;;5123497;27;20034;-79
2021/05/14 07:54:44;;;;;;;3.00;2.27;;;10.30;99.90;;;;;;5124339;27;20023;-79
2021/05/14 07:57:10;;;;;;;5.53;2.97;;;10.30;99.90;;;;;;5137072;27;20076;-79
2021/05/14 07:59:35;;;;;;;3.38;1.80;;;10.30;99.90;;;;;;5129151;27;20027;-79
2021/05/14 08:02:01;;;;;;;2.97;2.07;;;10.30;99.90;;;;;;5114636;27;20418;-79
2021/05/14 08:04:27;;;;;;;3.67;1.93;;;10.30;99.90;;;;;;5132738;27;20079;-79
2021/05/14 08:06:53;;;;;;;5.43;2.50;;;10.20;99.90;;;;;;5123319;27;20027;-79
2021/05/14 08:09:21;;;;;;;8.10;2.77;;;10.10;99.90;;;;;;5133134;27;20095;-80
2021/05/14 08:11:47;;;;;;;5.30;2.55;;;10.10;99.90;;;;;;5132626;27;20015;-79
2021/05/14 08:14:13;;;;;;;4.30;2.27;;;10.10;99.90;;;;;;5126422;27;20034;-79
2021/05/14 08:16:38;;;;;;;4.47;2.80;;;10.20;99.90;;;;;;5120260;27;20050;-80
2021/05/14 08:19:04;;;;;;;2.23;1.97;;;10.30;99.90;;;;;;5133049;27;20030;-79
2021/05/14 08:21:30;;;;;;;8.20;2.30;;;10.30;99.90;;;;;;5133496;27;20042;-80
2021/05/14 08:23:55;;;;;;;4.37;2.53;;;10.40;99.90;;;;;;5128605;27;20023;-77
2021/05/14 08:26:21;;;;;;;3.50;2.23;;;10.40;99.90;;;;;;5121492;27;20023;-80
2021/05/14 08:28:47;;;;;;;4.30;2.40;;;10.40;99.90;;;;;;5119619;27;20027;-79
2021/05/14 08:31:13;;;;;;;7.07;2.27;;;10.40;99.90;;;;;;5127917;27;20023;-79
2021/05/14 08:33:39;;;;;;;4.78;2.80;;;10.50;99.90;;;;;;5126137;27;20026;-79
2021/05/14 08:36:05;;;;;;;5.73;2.60;;;10.50;99.90;;;;;;5130844;27;20047;-78
2021/05/14 08:38:32;;;;;;;8.18;2.80;;;10.40;99.90;;;;;;5131728;27;20441;-80
2021/05/14 08:41:04;;;;;;;3.55;1.95;;;10.40;99.90;;;;;;5121541;27;20484;-78
2021/05/14 08:43:29;;;;;;;6.95;2.72;;;10.30;99.90;;;;;;5125497;27;20330;-79
2021/05/14 08:45:55;;;;;;;3.43;2.23;;;10.40;99.90;;;;;;5120117;27;20024;-78
2021/05/14 08:48:23;;;;;;;8.07;2.67;;;10.40;99.90;;;;;;5135418;27;20042;-80
2021/05/14 08:50:48;;;;;;;8.82;2.78;;;10.50;99.90;;;;;;5132169;27;20030;-79
2021/05/14 08:53:14;;;;;;;4.10;2.23;;;10.50;99.90;;;;;;5125696;27;20023;-80
2021/05/14 08:55:42;;;;;;;4.97;2.37;;;10.60;99.90;;;;;;5121829;27;20019;-80
2021/05/14 08:58:07;;;;;;;4.70;2.30;;;10.70;99.90;;;;;;5122294;27;20335;-78
2021/05/14 09:00:33;;;;;;;5.57;2.50;;;10.70;99.90;;;;;;5132406;27;20011;-79
2021/05/14 09:02:59;;;;;;;2.83;2.53;;;10.60;99.90;;;;;;5132413;27;20083;-79
2021/05/14 09:05:25;;;;;;;5.90;2.77;;;10.70;99.90;;;;;;5142012;27;20027;-79
2021/05/14 09:07:53;;;;;;;3.42;2.03;;;10.70;99.90;;;;;;5144785;27;20082;-79
2021/05/14 09:10:19;;;;;;;4.10;2.28;;;10.70;99.90;;;;;;5140642;27;20054;-79
2021/05/14 09:12:45;;;;;;;10.27;2.67;;;10.80;99.90;;;;;;5136083;27;20019;-79
2021/05/14 09:15:30;;;;;;;6.05;2.50;;;10.80;99.90;;;;;;5143182;27;20076;-79
2021/05/14 09:18:05;;;;;;;6.15;2.65;;;10.90;99.90;;;;;;5145638;27;20325;-79
2021/05/14 09:20:36;;;;;;;9.07;2.80;;;10.90;99.90;;;;;;5129889;27;20065;-79
2021/05/14 09:23:26;;;;;;;4.60;2.85;;;11.00;99.90;;;;;;5134051;27;20042;-77
2021/05/14 09:26:14;;;;;;;2.65;2.13;;;11.10;99.90;;;;;;5133287;27;20079;-79
2021/05/14 09:28:48;;;;;;;6.50;2.03;;;11.10;99.90;;;;;;5132932;27;20062;-78
2021/05/14 09:31:41;;;;;;;4.10;2.38;;;11.20;99.90;;;;;;5149069;27;20031;-79
2021/05/14 09:34:07;;;;;;;8.73;2.60;;;11.20;99.90;;;;;;5129814;27;20088;-80
2021/05/14 09:36:35;;;;;;;8.82;2.85;;;11.20;99.90;;;;;;5143408;27;20497;-79
2021/05/14 09:39:11;;;;;;;9.05;2.78;;;11.20;99.90;;;;;;5133409;27;20329;-78
2021/05/14 09:41:46;;;;;;;5.10;2.25;;;11.20;99.90;;;;;;5141949;27;20107;-78
2021/05/14 09:44:16;;;;;;;3.78;2.33;;;11.40;99.90;;;;;;5142796;27;20026;-78
2021/05/14 09:46:45;;;;;;;3.97;2.25;;;11.50;99.90;;;;;;5142318;27;20309;-77
2021/05/14 09:49:17;;;;;;;2.83;1.98;;;11.60;99.90;;;;;;5142901;27;20047;-78
2021/05/14 09:51:52;;;;;;;6.57;2.47;;;11.60;99.90;;;;;;5132834;27;20050;-78
2021/05/14 09:54:19;;;;;;;9.45;1.98;;;11.60;99.90;;;;;;5136828;27;20023;-78
2021/05/14 09:57:03;;;;;;;7.45;2.85;;;11.60;99.90;;;;;;5130564;27;20057;-78
2021/05/14 09:59:31;;;;;;;5.65;2.08;;;11.60;99.90;;;;;;5123830;27;20022;-77
2021/05/14 10:01:58;;;;;;;4.28;2.25;;;11.60;99.90;;;;;;5130924;27;20055;-78
2021/05/14 10:04:26;;;;;;;3.53;2.05;;;11.60;99.90;;;;;;5132384;27;20072;-78
2021/05/14 10:06:53;;;;;;;3.22;2.10;;;11.60;99.90;;;;;;5139292;27;20075;-78
2021/05/14 10:09:20;;;;;;;4.53;2.50;;;11.60;99.90;;;;;;5134695;27;20055;-78
2021/05/14 10:11:46;;;;;;;6.65;2.47;;;11.60;99.90;;;;;;5134798;27;20050;-78
2021/05/14 10:14:12;;;;;;;9.63;2.80;;;11.60;99.90;;;;;;5131477;27;20387;-79
2021/05/14 10:16:38;;;;;;;3.33;2.30;;;11.50;99.90;;;;;;5141987;27;20026;-78
2021/05/14 10:19:05;;;;;;;5.07;2.13;;;11.50;99.90;;;;;;5131166;27;20034;-79
2021/05/14 10:21:33;;;;;;;7.18;2.85;;;11.50;99.90;;;;;;5134037;27;20027;-78
2021/05/14 10:23:59;;;;;;;5.40;2.38;;;11.50;99.90;;;;;;5130707;27;20080;-78
2021/05/14 10:26:36;;;;;;;5.63;2.57;;;11.50;99.90;;;;;;5143114;27;20410;-79
2021/05/14 10:29:11;;;;;;;3.83;2.75;;;11.60;99.90;;;;;;5132526;27;20105;-78
2021/05/14 10:31:45;;;;;;;4.78;2.30;;;11.50;99.90;;;;;;5132115;27;20024;-78
2021/05/14 10:34:15;;;;;;;4.30;2.55;;;11.50;99.90;;;;;;5129582;27;20041;-79
2021/05/14 10:36:43;;;;;;;7.00;2.90;;;11.60;99.90;;;;;;5131649;27;20051;-78
2021/05/14 10:39:14;;;;;;;4.50;2.40;;;11.50;99.90;;;;;;5129512;27;20107;-78
2021/05/14 10:42:00;;;;;;;3.30;2.20;;;11.50;99.90;;;;;;5132563;27;20110;-78
2021/05/14 10:44:53;;;;;;;4.47;2.58;;;11.50;99.90;;;;;;5139742;27;20477;-77
2021/05/14 10:47:21;;;;;;;4.35;2.33;;;11.60;99.90;;;;;;5142348;27;20012;-79
2021/05/14 10:49:51;;;;;;;3.08;2.15;;;11.70;99.90;;;;;;5141923;27;20435;-78
2021/05/14 10:52:16;;;;;;;10.88;2.70;;;11.80;99.90;;;;;;5135068;27;20090;-79
2021/05/14 10:54:42;;;;;;;3.63;2.23;;;11.80;99.90;;;;;;5147233;27;20152;-78
2021/05/14 10:57:13;;;;;;;3.47;2.30;;;11.80;99.90;;;;;;5137038;27;20034;-77
2021/05/14 10:59:40;;;;;;;7.28;2.00;;;11.90;99.90;;;;;;5143864;27;20097;-77
2021/05/14 11:02:31;;;;;;;4.93;2.13;;;11.80;99.90;;;;;;5146448;27;20027;-78
2021/05/14 11:04:59;;;;;;;3.83;2.53;;;11.90;99.90;;;;;;5143697;27;20015;-78
2021/05/14 11:07:40;;;;;;;5.38;2.67;;;11.90;99.90;;;;;;5137241;27;20024;-79
2021/05/14 11:10:15;;;;;;;7.65;2.63;;;11.90;99.90;;;;;;5135666;27;20043;-78
2021/05/14 11:12:43;;;;;;;3.22;2.58;;;12.00;99.90;;;;;;5136322;27;20413;-79
2021/05/14 11:15:14;;;;;;;9.25;3.45;;;11.90;99.90;;;;;;5142885;27;20051;-78
2021/05/14 11:17:40;;;;;;;4.15;2.63;;;11.90;99.90;;;;;;5132520;27;20015;-78
2021/05/14 11:20:21;;;;;;;4.32;2.55;;;11.90;99.90;;;;;;5134792;27;20038;-78
2021/05/14 11:22:47;;;;;;;6.45;2.80;;;12.00;99.90;;;;;;5147532;27;20036;-79
2021/05/14 11:25:17;;;;;;;4.10;2.20;;;12.10;99.90;;;;;;5137890;27;20031;-78
2021/05/14 11:27:45;;;;;;;5.22;2.60;;;12.20;99.90;;;;;;5135036;27;20034;-77
2021/05/14 11:30:13;;;;;;;2.33;2.05;;;12.20;99.90;;;;;;5134461;27;20035;-79
2021/05/14 11:32:44;;;;;;;8.35;2.60;;;12.30;99.90;;;;;;5144132;27;20026;-78
2021/05/14 11:35:24;;;;;;;6.13;2.58;;;12.30;99.90;;;;;;5144286;27;20066;-79
2021/05/14 11:37:58;;;;;;;6.32;2.63;;;12.40;99.90;;;;;;5145130;27;20031;-78
2021/05/14 11:40:28;;;;;;;6.45;3.22;;;12.40;99.90;;;;;;5135157;27;20027;-78
2021/05/14 11:43:03;;;;;;;7.22;3.60;;;12.30;99.90;;;;;;5146615;27;20027;-79
2021/05/14 11:45:36;;;;;;;5.35;2.88;;;12.40;99.90;;;;;;5135735;27;20110;-79
2021/05/14 11:48:09;;;;;;;7.35;3.08;;;12.30;99.90;;;;;;5136223;27;20027;-79
2021/05/14 11:50:40;;;;;;;8.90;3.95;;;12.30;99.90;;;;;;5144557;27;20357;-78
2021/05/14 11:53:08;;;;;;;5.90;3.35;;;12.30;99.90;;;;;;5135334;27;20069;-78
2021/05/14 11:55:36;;;;;;;7.65;3.53;;;12.30;99.90;;;;;;5134976;27;20027;-78
2021/05/14 11:58:02;;;;;;;11.38;2.90;;;12.30;99.90;;;;;;5147356;27;20018;-79
2021/05/14 12:00:38;;;;;;;7.50;3.30;;;12.50;99.90;;;;;;5136347;27;20055;-79
2021/05/14 12:03:11;;;;;;;7.63;3.30;;;12.60;99.90;;;;;;5144038;27;20024;-80
2021/05/14 12:05:39;;;;;;;5.75;3.80;;;12.40;99.90;;;;;;5143391;27;20023;-79
2021/05/14 12:08:09;;;;;;;6.57;3.15;;;12.40;99.90;;;;;;5132669;27;20028;-79
2021/05/14 12:10:47;;;;;;;6.88;3.30;;;12.50;99.90;;;;;;5136490;27;20332;-80
2021/05/14 12:13:15;;;;;;;7.85;4.13;;;12.50;99.90;;;;;;5141546;27;20441;-78
2021/05/14 12:15:41;;;;;;;10.82;3.00;;;12.50;99.90;;;;;;5143167;27;20075;-77
2021/05/14 12:18:07;;;;;;;9.97;3.53;;;12.70;99.90;;;;;;5134891;27;20031;-78
2021/05/14 12:20:41;;;;;;;9.57;4.13;;;12.80;99.90;;;;;;5133438;27;20080;-78
2021/05/14 12:23:10;;;;;;;9.07;4.07;;;12.90;99.90;;;;;;5135770;27;20122;-78
2021/05/14 12:25:45;;;;;;;7.57;3.55;;;13.00;99.90;;;;;;5145223;27;21302;-78
2021/05/14 12:28:33;;;;;;;9.38;4.05;;;12.90;99.90;;;;;;5145239;27;20050;-78
2021/05/14 12:31:01;;;;;;;6.45;3.78;;;12.70;99.90;;;;;;5132095;27;20035;-77
2021/05/14 12:33:28;;;;;;;13.00;4.15;;;12.80;99.90;;;;;;5138682;27;20031;-79
2021/05/14 12:36:07;;;;;;;13.75;4.72;;;12.80;99.90;;;;;;5144033;27;20442;-79
2021/05/14 12:38:48;;;;;;;7.95;3.70;;;12.90;99.90;;;;;;5143924;27;20031;-78
2021/05/14 12:41:26;;;;;;;10.70;3.63;;;12.90;99.90;;;;;;5128606;27;20051;-77
2021/05/14 12:44:06;;;;;;;9.65;4.60;;;12.90;99.90;;;;;;5132437;27;20035;-78
2021/05/14 12:46:34;;;;;;;9.98;3.45;;;12.90;99.90;;;;;;5139606;27;20031;-77
2021/05/14 12:49:10;;;;;;;12.43;4.25;;;12.90;99.90;;;;;;5135888;27;20026;-78
2021/05/14 12:51:36;;;;;;;8.07;3.72;;;13.00;99.90;;;;;;5140691;27;20030;-77